sensor_id;sensor_type;location;lat;lon;timestamp;pressure;altitude;pressure_sealevel;temperature;humidity
48027;BME280;50714;49.208;5.364;2022-09-17T00:02:11;99400.41;;;12.30;55.11
48027;BME280;50714;49.208;5.364;2022-09-17T00:12:12;99409.84;;;12.15;55.50
48027;BME280;50714;49.208;5.364;2022-09-17T00:22:13;99405.69;;;12.12;55.48
48027;BME280;50714;49.208;5.364;2022-09-17T00:32:13;99400.94;;;12.08;55.76
48027;BME280;50714;49.208;5.364;2022-09-17T00:42:15;99414.28;;;12.03;56.15
48027;BME280;50714;49.208;5.364;2022-09-17T00:52:23;99417.41;;;12.00;56.79
48027;BME280;50714;49.208;5.364;2022-09-17T01:02:24;99414.34;;;11.83;56.13
48027;BME280;50714;49.208;5.364;2022-09-17T01:23:42;99426.22;;;11.75;57.97
48027;BME280;50714;49.208;5.364;2022-09-17T01:33:42;99420.63;;;11.77;57.61
48027;BME280;50714;49.208;5.364;2022-09-17T01:43:54;99435.94;;;11.96;57.69
48027;BME280;50714;49.208;5.364;2022-09-17T01:54:10;99442.59;;;12.00;58.87
48027;BME280;50714;49.208;5.364;2022-09-17T02:04:23;99452.28;;;12.21;59.29
48027;BME280;50714;49.208;5.364;2022-09-17T02:14:30;99443.03;;;12.35;58.91
48027;BME280;50714;49.208;5.364;2022-09-17T02:24:36;99439.47;;;12.48;58.45
48027;BME280;50714;49.208;5.364;2022-09-17T02:34:40;99431.28;;;12.54;58.34
48027;BME280;50714;49.208;5.364;2022-09-17T02:45:18;99446.03;;;12.58;60.01
48027;BME280;50714;49.208;5.364;2022-09-17T02:55:29;99429.56;;;12.60;58.67
48027;BME280;50714;49.208;5.364;2022-09-17T03:05:31;99438.09;;;12.63;61.42
48027;BME280;50714;49.208;5.364;2022-09-17T03:15:32;99441.03;;;12.62;58.81
48027;BME280;50714;49.208;5.364;2022-09-17T03:25:32;99444.56;;;12.62;58.94
48027;BME280;50714;49.208;5.364;2022-09-17T03:35:33;99433.91;;;12.68;59.04
48027;BME280;50714;49.208;5.364;2022-09-17T03:45:34;99436.63;;;12.68;59.30
48027;BME280;50714;49.208;5.364;2022-09-17T03:55:37;99444.75;;;12.68;59.71
48027;BME280;50714;49.208;5.364;2022-09-17T04:05:37;99443.69;;;12.69;59.45
48027;BME280;50714;49.208;5.364;2022-09-17T04:15:38;99456.63;;;12.67;59.66
48027;BME280;50714;49.208;5.364;2022-09-17T04:25:39;99457.66;;;12.66;59.89
48027;BME280;50714;49.208;5.364;2022-09-17T04:35:39;99463.28;;;12.64;60.05
48027;BME280;50714;49.208;5.364;2022-09-17T04:45:40;99468.56;;;12.52;60.11
48027;BME280;50714;49.208;5.364;2022-09-17T04:55:42;99482.91;;;12.53;60.30
48027;BME280;50714;49.208;5.364;2022-09-17T05:05:43;99487.75;;;12.51;60.06
48027;BME280;50714;49.208;5.364;2022-09-17T05:15:44;99494.44;;;12.42;60.12
48027;BME280;50714;49.208;5.364;2022-09-17T05:25:44;99509.44;;;12.44;60.17
48027;BME280;50714;49.208;5.364;2022-09-17T05:35:45;99517.28;;;12.52;60.21
48027;BME280;50714;49.208;5.364;2022-09-17T05:45:46;99526.00;;;12.61;60.09
48027;BME280;50714;49.208;5.364;2022-09-17T05:55:47;99528.91;;;12.59;60.16
48027;BME280;50714;49.208;5.364;2022-09-17T06:05:55;99528.25;;;12.71;61.17
48027;BME280;50714;49.208;5.364;2022-09-17T06:15:57;99548.16;;;12.83;60.61
48027;BME280;50714;49.208;5.364;2022-09-17T06:25:58;99563.97;;;12.92;60.71
48027;BME280;50714;49.208;5.364;2022-09-17T06:36:07;99569.94;;;13.01;60.79
48027;BME280;50714;49.208;5.364;2022-09-17T06:46:08;99579.38;;;13.30;60.89
48027;BME280;50714;49.208;5.364;2022-09-17T06:56:09;99590.47;;;13.53;60.46
48027;BME280;50714;49.208;5.364;2022-09-17T07:06:10;99590.88;;;13.57;60.23
48027;BME280;50714;49.208;5.364;2022-09-17T07:16:12;99588.94;;;13.89;60.25
48027;BME280;50714;49.208;5.364;2022-09-17T07:26:13;99585.28;;;14.20;60.16
48027;BME280;50714;49.208;5.364;2022-09-17T07:36:15;99577.47;;;14.66;59.61
48027;BME280;50714;49.208;5.364;2022-09-17T07:46:18;99581.44;;;15.00;58.39
48027;BME280;50714;49.208;5.364;2022-09-17T07:56:19;99587.38;;;16.91;58.21
48027;BME280;50714;49.208;5.364;2022-09-17T08:06:22;99582.88;;;16.85;57.45
48027;BME280;50714;49.208;5.364;2022-09-17T08:16:25;99598.81;;;17.33;54.86
48027;BME280;50714;49.208;5.364;2022-09-17T08:26:25;99601.03;;;17.19;54.98
48027;BME280;50714;49.208;5.364;2022-09-17T08:36:27;99607.34;;;17.08;54.47
48027;BME280;50714;49.208;5.364;2022-09-17T08:46:31;99611.59;;;18.45;56.55
48027;BME280;50714;49.208;5.364;2022-09-17T08:56:33;99622.00;;;22.98;52.04
48027;BME280;50714;49.208;5.364;2022-09-17T09:06:47;99620.25;;;24.63;43.26
48027;BME280;50714;49.208;5.364;2022-09-17T09:16:50;99619.00;;;24.27;44.19
48027;BME280;50714;49.208;5.364;2022-09-17T09:37:30;99610.50;;;22.86;41.99
48027;BME280;50714;49.208;5.364;2022-09-17T09:47:50;99613.84;;;23.37;41.39
48027;BME280;50714;49.208;5.364;2022-09-17T09:57:58;99608.06;;;27.12;43.21
48027;BME280;50714;49.208;5.364;2022-09-17T10:08:12;99603.59;;;28.19;35.64
48027;BME280;50714;49.208;5.364;2022-09-17T10:18:17;99607.06;;;26.48;38.31
48027;BME280;50714;49.208;5.364;2022-09-17T10:28:49;99604.53;;;24.64;37.64
48027;BME280;50714;49.208;5.364;2022-09-17T10:38:50;99599.38;;;25.80;39.70
48027;BME280;50714;49.208;5.364;2022-09-17T10:49:04;99588.44;;;24.95;36.39
48027;BME280;50714;49.208;5.364;2022-09-17T10:59:52;99611.53;;;23.59;37.91
48027;BME280;50714;49.208;5.364;2022-09-17T11:41:06;99601.84;;;19.14;49.23
48027;BME280;50714;49.208;5.364;2022-09-17T12:01:38;99592.19;;;21.44;47.43
48027;BME280;50714;49.208;5.364;2022-09-17T12:12:16;99587.22;;;21.51;45.30
48027;BME280;50714;49.208;5.364;2022-09-17T12:22:20;99595.16;;;19.81;47.97
48027;BME280;50714;49.208;5.364;2022-09-17T13:23:39;99571.66;;;19.90;48.81
48027;BME280;50714;49.208;5.364;2022-09-17T13:33:50;99569.53;;;19.65;47.73
48027;BME280;50714;49.208;5.364;2022-09-17T13:43:52;99574.84;;;19.23;48.24
48027;BME280;50714;49.208;5.364;2022-09-17T13:54:07;99584.13;;;18.73;46.84
48027;BME280;50714;49.208;5.364;2022-09-17T14:04:44;99592.50;;;18.28;46.19
48027;BME280;50714;49.208;5.364;2022-09-17T14:14:50;99595.34;;;17.83;47.73
48027;BME280;50714;49.208;5.364;2022-09-17T14:24:52;99594.53;;;17.82;47.93
48027;BME280;50714;49.208;5.364;2022-09-17T14:34:53;99594.25;;;18.00;48.11
48027;BME280;50714;49.208;5.364;2022-09-17T14:44:59;99584.06;;;18.29;48.23
48027;BME280;50714;49.208;5.364;2022-09-17T14:55:21;99581.66;;;18.33;47.25
48027;BME280;50714;49.208;5.364;2022-09-17T15:05:32;99586.16;;;18.05;47.18
48027;BME280;50714;49.208;5.364;2022-09-17T15:15:34;99584.19;;;17.84;47.41
48027;BME280;50714;49.208;5.364;2022-09-17T15:25:35;99589.06;;;17.65;47.12
48027;BME280;50714;49.208;5.364;2022-09-17T15:35:36;99578.31;;;17.30;47.79
48027;BME280;50714;49.208;5.364;2022-09-17T15:45:37;99577.06;;;17.21;48.34
48027;BME280;50714;49.208;5.364;2022-09-17T15:55:43;99594.00;;;16.95;47.63
48027;BME280;50714;49.208;5.364;2022-09-17T16:05:45;99601.47;;;16.24;48.61
48027;BME280;50714;49.208;5.364;2022-09-17T16:15:46;99594.81;;;16.09;49.68
48027;BME280;50714;49.208;5.364;2022-09-17T16:25:47;99596.00;;;16.13;50.04
48027;BME280;50714;49.208;5.364;2022-09-17T16:35:48;99605.47;;;16.10;50.30
48027;BME280;50714;49.208;5.364;2022-09-17T16:45:59;99604.66;;;16.21;51.33
48027;BME280;50714;49.208;5.364;2022-09-17T16:56:00;99611.06;;;16.27;50.78
48027;BME280;50714;49.208;5.364;2022-09-17T17:06:00;99622.63;;;16.11;51.39
48027;BME280;50714;49.208;5.364;2022-09-17T17:16:07;99630.56;;;16.00;52.29
48027;BME280;50714;49.208;5.364;2022-09-17T17:26:07;99649.59;;;15.89;52.37
48027;BME280;50714;49.208;5.364;2022-09-17T17:36:08;99651.44;;;15.65;52.66
48027;BME280;50714;49.208;5.364;2022-09-17T17:46:10;99655.13;;;15.41;53.36
48027;BME280;50714;49.208;5.364;2022-09-17T17:56:11;99659.53;;;15.23;53.35
48027;BME280;50714;49.208;5.364;2022-09-17T18:06:12;99661.47;;;15.05;53.98
48027;BME280;50714;49.208;5.364;2022-09-17T18:16:13;99668.88;;;14.79;54.31
48027;BME280;50714;49.208;5.364;2022-09-17T18:26:19;99676.47;;;14.71;55.32
48027;BME280;50714;49.208;5.364;2022-09-17T18:36:20;99689.56;;;14.62;54.91
48027;BME280;50714;49.208;5.364;2022-09-17T18:46:21;99695.66;;;14.57;55.25
48027;BME280;50714;49.208;5.364;2022-09-17T18:56:23;99715.13;;;14.73;55.17
48027;BME280;50714;49.208;5.364;2022-09-17T19:06:25;99716.13;;;14.78;55.21
48027;BME280;50714;49.208;5.364;2022-09-17T19:16:26;99726.91;;;14.85;54.97
48027;BME280;50714;49.208;5.364;2022-09-17T19:26:26;99745.78;;;14.80;54.94
48027;BME280;50714;49.208;5.364;2022-09-17T19:36:27;99748.50;;;14.80;54.56
48027;BME280;50714;49.208;5.364;2022-09-17T19:46:27;99748.16;;;14.70;54.60
48027;BME280;50714;49.208;5.364;2022-09-17T19:56:29;99752.78;;;14.69;54.58
48027;BME280;50714;49.208;5.364;2022-09-17T20:06:32;99754.88;;;14.67;54.32
48027;BME280;50714;49.208;5.364;2022-09-17T20:16:34;99751.63;;;14.58;54.22
48027;BME280;50714;49.208;5.364;2022-09-17T20:26:35;99750.03;;;14.51;54.04
48027;BME280;50714;49.208;5.364;2022-09-17T20:36:35;99765.63;;;14.30;54.27
48027;BME280;50714;49.208;5.364;2022-09-17T20:46:36;99765.16;;;14.09;54.43
48027;BME280;50714;49.208;5.364;2022-09-17T20:56:36;99762.50;;;13.95;54.67
48027;BME280;50714;49.208;5.364;2022-09-17T21:06:38;99778.22;;;13.93;55.11
48027;BME280;50714;49.208;5.364;2022-09-17T21:16:40;99778.81;;;13.95;55.34
48027;BME280;50714;49.208;5.364;2022-09-17T21:26:40;99782.13;;;13.97;55.57
48027;BME280;50714;49.208;5.364;2022-09-17T21:36:41;99783.88;;;13.85;55.60
48027;BME280;50714;49.208;5.364;2022-09-17T21:46:47;99782.53;;;13.70;55.34
48027;BME280;50714;49.208;5.364;2022-09-17T21:56:48;99781.75;;;13.49;55.85
48027;BME280;50714;49.208;5.364;2022-09-17T22:06:49;99782.66;;;13.37;55.88
48027;BME280;50714;49.208;5.364;2022-09-17T22:16:54;99790.84;;;13.17;56.24
48027;BME280;50714;49.208;5.364;2022-09-17T22:26:56;99782.94;;;13.02;56.09
48027;BME280;50714;49.208;5.364;2022-09-17T22:36:56;99785.06;;;12.87;56.50
48027;BME280;50714;49.208;5.364;2022-09-17T22:46:56;99787.38;;;12.63;56.91
48027;BME280;50714;49.208;5.364;2022-09-17T22:56:57;99785.91;;;12.61;57.22
48027;BME280;50714;49.208;5.364;2022-09-17T23:06:57;99778.03;;;12.46;57.25
48027;BME280;50714;49.208;5.364;2022-09-17T23:16:58;99773.03;;;12.23;57.53
48027;BME280;50714;49.208;5.364;2022-09-17T23:26:58;99785.06;;;12.08;58.00
48027;BME280;50714;49.208;5.364;2022-09-17T23:36:59;99781.53;;;12.01;58.44
48027;BME280;50714;49.208;5.364;2022-09-17T23:46:59;99771.75;;;12.00;58.29
48027;BME280;50714;49.208;5.364;2022-09-17T23:57:00;99773.97;;;11.83;58.82
